Hendersonville, NC

6:59 PM EDT on August 02, 2015 (GMT -0400)
Maplewood Ct off Hwy 191 in City | | Change Station
CLOSE
Current Station
Personal Weather Station
Location: Hendersonville, NC
Elevation: 2133 ft
Nearby Weather Stations

Elev 2133 ft 35.33 °N, 82.48 °W | Updated 14 hours ago

Partly Cloudy
Partly Cloudy
79 °F
Feels Like 79 °F
N
5
Wind Variable Wind from SE
Gusts mph

Today
High -- | Low -- °F
--% Chance of Precip.
Yesterday
High -- | Low -- °F
Precip. -- in
6:39 AM 8:32 PM
Waning Gibbous, 91% visible
Pressure 29.92 in
Visibility 10.0 miles
Clouds Scattered Clouds 6500 ft
Dew Point 59 °F
Humidity 51%
Rainfall 0.00 in
Snow Depth Not available.
UV 1 out of 12
Pollen 4.80 out of 12
Air Quality Not available.
Flu Activity Not available.
METAR KAVL 022254Z 14005KT 10SM SCT065 28/12 A2999 RMK AO2 SLP130 T02830122

More Conditions Fewer Conditions

Pressure 29.92 in
Visibility 10.0 miles
Clouds Scattered Clouds 6500 ft
Dew Point 59 °F
Humidity 51%
Rainfall 0.00 in
Snow Depth Not available.
UV 1 out of 12
Pollen 4.80 out of 12
Air Quality Not available.
Flu Activity Not available.
METAR KAVL 022254Z 14005KT 10SM SCT065 28/12 A2999 RMK AO2 SLP130 T02830122

More Conditions Fewer Conditions

10-Day Weather Forecast

×

Almanac

Astronomy

Aug. 02, 2015 Rise Set
Actual Time
Civil Twilight
Nautical Twilight
Astronomical Twilight
Moon
Length of Visible Light
Length of Day
Tomorrow will be .
, % of the Moon is Illuminated

Today's Extremes

State Highs State Lows

Community

WunderPhotos

Upload Photos

1,843,400 photos uploaded!

WunderBlogs® & News

Nearby

Air Quality

  Air Quality AQ Index Pollutant
Not available.

Snow Depth

Station Depth Elevation

Earthquake Activity

City Distance Mag. Time & Date
Minimum magnitude displayed is 2.5.

Coastal Water Temperatures

Place Temperature

Stations

Nearby Weather Stations

Station Location Temp. Windchill Dew Point Humidity Wind Precip. Elev Updated Type